Ana Sayfa
METAR-TAF:

METAR-TAF

Havaalanları :

Kudat, Malezya

Enlem: 06-55N, Boylam: 116-50E, yükseklik: 3 m

Güncel hava durumu gözlemi

Rapor saat 20:00 UTC de 1 saat ve 3 dakika önce yapıldı.
Rüzgar değişken yönden 2 kt
Sıcaklık 27°C
Nem 84%
Basınç 1010 hPa
Görüş mesafesi 10 km veya daha fazla
1400 ft yükseklikte az bulutlu
27000 ft yükseklikte parçalı çok bulutlu

METAR: WBKT 312000Z VRB02KT 9999 FEW014 BKN270 27/24 Q1010

Saat: 05:03 (21:03 UTC)


TAF: eksik

4.000'den fazla havaalanı için hava durumu gözlemleri ve tahminleri (METAR ve TAF raporları).

Kullanılabilir istasyonlar harita üzerinde sarı ve kırmızı noktalarla gösterilir.

İstasyonun adını görmek için fareyi noktanın üzerinde gezdirin.

Sonrasında hava gözlem ve tahminlerini görmek için tıklayın.

Haritayı değiştirmek için: yaklaştırmak için siyah artı işaretli yeşil düğmeye ve uzaklaştırmak için de eksi işaretli düğmeye hızla tıklayın; bitişik haritalar için yeşil okları kullanın.


METAR-TAF: